sensor_id;sensor_type;location;lat;lon;timestamp;temperature;humidity
6462;DHT22;3264;42.862;25.098;2024-03-23T00:51:54;3.80;85.70
6462;DHT22;3264;42.862;25.098;2024-03-23T00:54:33;3.80;85.70
6462;DHT22;3264;42.862;25.098;2024-03-23T00:56:59;3.70;85.70
6462;DHT22;3264;42.862;25.098;2024-03-23T00:59:29;3.70;85.90
6462;DHT22;3264;42.862;25.098;2024-03-23T01:01:57;3.70;85.90
6462;DHT22;3264;42.862;25.098;2024-03-23T01:04:25;3.70;86.00
6462;DHT22;3264;42.862;25.098;2024-03-23T01:06:53;3.60;86.00
6462;DHT22;3264;42.862;25.098;2024-03-23T01:09:21;3.60;86.20
6462;DHT22;3264;42.862;25.098;2024-03-23T01:11:49;3.60;86.40
6462;DHT22;3264;42.862;25.098;2024-03-23T01:14:17;3.60;86.50
6462;DHT22;3264;42.862;25.098;2024-03-23T01:16:46;3.60;86.30
6462;DHT22;3264;42.862;25.098;2024-03-23T01:19:14;3.60;86.30
6462;DHT22;3264;42.862;25.098;2024-03-23T01:21:41;3.60;86.60
6462;DHT22;3264;42.862;25.098;2024-03-23T01:24:10;3.60;86.70
6462;DHT22;3264;42.862;25.098;2024-03-23T01:26:36;3.60;86.70
6462;DHT22;3264;42.862;25.098;2024-03-23T01:29:05;3.50;86.60
6462;DHT22;3264;42.862;25.098;2024-03-23T01:31:32;3.50;86.90
6462;DHT22;3264;42.862;25.098;2024-03-23T01:34:01;3.50;86.90
6462;DHT22;3264;42.862;25.098;2024-03-23T01:36:30;3.40;86.90
6462;DHT22;3264;42.862;25.098;2024-03-23T01:38:58;3.40;87.00
6462;DHT22;3264;42.862;25.098;2024-03-23T01:41:25;3.40;87.10
6462;DHT22;3264;42.862;25.098;2024-03-23T01:43:55;3.40;87.00
6462;DHT22;3264;42.862;25.098;2024-03-23T01:46:22;3.40;87.20
6462;DHT22;3264;42.862;25.098;2024-03-23T01:48:51;3.40;87.40
6462;DHT22;3264;42.862;25.098;2024-03-23T01:51:20;3.40;87.50
6462;DHT22;3264;42.862;25.098;2024-03-23T01:53:48;3.40;87.20
6462;DHT22;3264;42.862;25.098;2024-03-23T01:56:15;3.40;87.10
6462;DHT22;3264;42.862;25.098;2024-03-23T01:58:44;3.40;87.30
6462;DHT22;3264;42.862;25.098;2024-03-23T02:01:12;3.40;87.30
6462;DHT22;3264;42.862;25.098;2024-03-23T02:03:40;3.30;87.30
6462;DHT22;3264;42.862;25.098;2024-03-23T02:06:08;3.20;87.50
6462;DHT22;3264;42.862;25.098;2024-03-23T02:08:37;3.20;88.00
6462;DHT22;3264;42.862;25.098;2024-03-23T02:11:24;3.20;88.10
6462;DHT22;3264;42.862;25.098;2024-03-23T02:13:52;3.20;88.40
6462;DHT22;3264;42.862;25.098;2024-03-23T02:16:19;3.10;88.50
6462;DHT22;3264;42.862;25.098;2024-03-23T02:18:46;3.20;88.90
6462;DHT22;3264;42.862;25.098;2024-03-23T02:21:15;3.10;88.70
6462;DHT22;3264;42.862;25.098;2024-03-23T02:23:45;3.20;88.60
6462;DHT22;3264;42.862;25.098;2024-03-23T02:26:12;3.10;88.30
6462;DHT22;3264;42.862;25.098;2024-03-23T02:28:41;3.10;88.20
6462;DHT22;3264;42.862;25.098;2024-03-23T02:31:09;3.10;88.50
6462;DHT22;3264;42.862;25.098;2024-03-23T02:33:37;3.00;88.50
6462;DHT22;3264;42.862;25.098;2024-03-23T02:36:05;3.00;88.70
6462;DHT22;3264;42.862;25.098;2024-03-23T02:38:33;3.10;88.90
6462;DHT22;3264;42.862;25.098;2024-03-23T02:41:03;3.00;88.90
6462;DHT22;3264;42.862;25.098;2024-03-23T02:43:31;3.10;88.80
6462;DHT22;3264;42.862;25.098;2024-03-23T02:45:59;3.00;88.50
6462;DHT22;3264;42.862;25.098;2024-03-23T02:48:28;3.00;88.70
6462;DHT22;3264;42.862;25.098;2024-03-23T02:50:54;3.00;89.10
6462;DHT22;3264;42.862;25.098;2024-03-23T02:53:22;2.90;89.20
6462;DHT22;3264;42.862;25.098;2024-03-23T02:55:50;2.90;89.10
6462;DHT22;3264;42.862;25.098;2024-03-23T02:58:20;2.90;89.30
6462;DHT22;3264;42.862;25.098;2024-03-23T03:00:47;2.90;89.80
6462;DHT22;3264;42.862;25.098;2024-03-23T03:03:15;2.90;89.90
6462;DHT22;3264;42.862;25.098;2024-03-23T03:05:41;2.90;89.90
6462;DHT22;3264;42.862;25.098;2024-03-23T03:08:10;2.90;90.00
6462;DHT22;3264;42.862;25.098;2024-03-23T03:10:37;2.90;89.80
6462;DHT22;3264;42.862;25.098;2024-03-23T03:13:06;2.90;89.70
6462;DHT22;3264;42.862;25.098;2024-03-23T03:15:35;2.90;89.70
6462;DHT22;3264;42.862;25.098;2024-03-23T03:18:04;2.90;89.70
6462;DHT22;3264;42.862;25.098;2024-03-23T03:20:31;2.90;89.60
6462;DHT22;3264;42.862;25.098;2024-03-23T03:23:00;2.90;89.50
6462;DHT22;3264;42.862;25.098;2024-03-23T03:25:27;2.90;89.30
6462;DHT22;3264;42.862;25.098;2024-03-23T03:27:56;2.90;89.20
6462;DHT22;3264;42.862;25.098;2024-03-23T03:30:23;2.90;88.80
6462;DHT22;3264;42.862;25.098;2024-03-23T03:32:54;2.90;88.50
6462;DHT22;3264;42.862;25.098;2024-03-23T03:35:20;2.90;88.40
6462;DHT22;3264;42.862;25.098;2024-03-23T03:37:49;2.80;88.30
6462;DHT22;3264;42.862;25.098;2024-03-23T03:40:15;2.80;88.60
6462;DHT22;3264;42.862;25.098;2024-03-23T03:42:44;2.80;88.80
6462;DHT22;3264;42.862;25.098;2024-03-23T03:45:10;2.80;88.70
6462;DHT22;3264;42.862;25.098;2024-03-23T03:47:38;2.70;88.50
6462;DHT22;3264;42.862;25.098;2024-03-23T03:50:08;2.70;88.40
6462;DHT22;3264;42.862;25.098;2024-03-23T03:52:36;2.60;88.10
6462;DHT22;3264;42.862;25.098;2024-03-23T03:55:04;2.50;88.30
6462;DHT22;3264;42.862;25.098;2024-03-23T03:57:40;2.50;88.70
6462;DHT22;3264;42.862;25.098;2024-03-23T04:00:24;2.50;89.00
6462;DHT22;3264;42.862;25.098;2024-03-23T04:02:52;2.40;89.20
6462;DHT22;3264;42.862;25.098;2024-03-23T04:05:21;2.40;89.30
6462;DHT22;3264;42.862;25.098;2024-03-23T04:07:49;2.40;89.70
6462;DHT22;3264;42.862;25.098;2024-03-23T04:10:15;2.40;90.00
6462;DHT22;3264;42.862;25.098;2024-03-23T04:12:44;2.40;90.00
6462;DHT22;3264;42.862;25.098;2024-03-23T04:15:12;2.40;89.50
6462;DHT22;3264;42.862;25.098;2024-03-23T04:17:40;2.40;89.70
6462;DHT22;3264;42.862;25.098;2024-03-23T04:20:10;2.40;89.90
6462;DHT22;3264;42.862;25.098;2024-03-23T04:22:43;2.40;90.10
6462;DHT22;3264;42.862;25.098;2024-03-23T04:25:10;2.40;90.00
6462;DHT22;3264;42.862;25.098;2024-03-23T04:27:39;2.40;89.90
6462;DHT22;3264;42.862;25.098;2024-03-23T04:30:09;2.40;89.90
6462;DHT22;3264;42.862;25.098;2024-03-23T04:32:38;2.40;89.90
6462;DHT22;3264;42.862;25.098;2024-03-23T04:35:06;2.50;89.50
6462;DHT22;3264;42.862;25.098;2024-03-23T04:37:36;2.40;89.20
6462;DHT22;3264;42.862;25.098;2024-03-23T04:40:10;2.50;89.30
6462;DHT22;3264;42.862;25.098;2024-03-23T04:42:39;2.50;89.20
6462;DHT22;3264;42.862;25.098;2024-03-23T04:45:07;2.50;88.80
6462;DHT22;3264;42.862;25.098;2024-03-23T04:47:36;2.50;88.60
6462;DHT22;3264;42.862;25.098;2024-03-23T04:50:04;2.50;88.80
6462;DHT22;3264;42.862;25.098;2024-03-23T04:52:32;2.50;89.10
6462;DHT22;3264;42.862;25.098;2024-03-23T04:55:00;2.50;88.30
6462;DHT22;3264;42.862;25.098;2024-03-23T04:57:29;2.50;88.20
6462;DHT22;3264;42.862;25.098;2024-03-23T04:59:57;2.60;88.50
6462;DHT22;3264;42.862;25.098;2024-03-23T05:02:24;2.70;88.50
6462;DHT22;3264;42.862;25.098;2024-03-23T05:04:54;2.80;88.40
6462;DHT22;3264;42.862;25.098;2024-03-23T05:07:21;2.90;88.40
6462;DHT22;3264;42.862;25.098;2024-03-23T05:09:49;3.10;88.30
6462;DHT22;3264;42.862;25.098;2024-03-23T05:12:15;3.20;87.50
6462;DHT22;3264;42.862;25.098;2024-03-23T05:14:44;3.30;87.30
6462;DHT22;3264;42.862;25.098;2024-03-23T05:17:12;3.50;87.40
6462;DHT22;3264;42.862;25.098;2024-03-23T05:19:39;3.60;86.00
6462;DHT22;3264;42.862;25.098;2024-03-23T05:22:07;3.70;85.70
6462;DHT22;3264;42.862;25.098;2024-03-23T05:24:35;3.80;84.80
6462;DHT22;3264;42.862;25.098;2024-03-23T05:27:02;3.90;84.00
6462;DHT22;3264;42.862;25.098;2024-03-23T05:29:29;3.90;83.60
6462;DHT22;3264;42.862;25.098;2024-03-23T05:31:58;4.00;83.40
6462;DHT22;3264;42.862;25.098;2024-03-23T05:34:26;4.10;83.00
6462;DHT22;3264;42.862;25.098;2024-03-23T05:36:54;4.10;82.40
6462;DHT22;3264;42.862;25.098;2024-03-23T05:39:23;4.20;82.30
6462;DHT22;3264;42.862;25.098;2024-03-23T05:41:50;4.30;82.10
6462;DHT22;3264;42.862;25.098;2024-03-23T05:44:18;4.40;82.00
6462;DHT22;3264;42.862;25.098;2024-03-23T05:46:45;4.50;81.40
6462;DHT22;3264;42.862;25.098;2024-03-23T05:49:17;4.50;79.70
6462;DHT22;3264;42.862;25.098;2024-03-23T05:51:44;4.60;80.30
6462;DHT22;3264;42.862;25.098;2024-03-23T05:54:13;4.90;81.00
6462;DHT22;3264;42.862;25.098;2024-03-23T05:56:40;5.10;80.00
6462;DHT22;3264;42.862;25.098;2024-03-23T05:59:08;5.30;79.40
6462;DHT22;3264;42.862;25.098;2024-03-23T06:01:37;5.40;78.70
6462;DHT22;3264;42.862;25.098;2024-03-23T06:04:06;5.50;76.00
6462;DHT22;3264;42.862;25.098;2024-03-23T06:06:36;5.50;75.60
6462;DHT22;3264;42.862;25.098;2024-03-23T06:09:03;5.80;76.40
6462;DHT22;3264;42.862;25.098;2024-03-23T06:11:31;6.10;76.60
6462;DHT22;3264;42.862;25.098;2024-03-23T06:13:59;6.40;75.50
6462;DHT22;3264;42.862;25.098;2024-03-23T06:16:26;6.70;74.50
6462;DHT22;3264;42.862;25.098;2024-03-23T06:18:54;6.90;73.30
6462;DHT22;3264;42.862;25.098;2024-03-23T06:21:23;7.10;71.90
6462;DHT22;3264;42.862;25.098;2024-03-23T06:23:53;7.30;72.50
6462;DHT22;3264;42.862;25.098;2024-03-23T06:26:21;7.60;71.60
6462;DHT22;3264;42.862;25.098;2024-03-23T06:28:49;7.90;71.10
6462;DHT22;3264;42.862;25.098;2024-03-23T06:31:18;8.20;70.20
6462;DHT22;3264;42.862;25.098;2024-03-23T06:33:44;8.40;65.90
6462;DHT22;3264;42.862;25.098;2024-03-23T06:36:16;8.70;66.20
6462;DHT22;3264;42.862;25.098;2024-03-23T06:38:42;8.90;66.60
6462;DHT22;3264;42.862;25.098;2024-03-23T06:41:13;9.10;65.10
6462;DHT22;3264;42.862;25.098;2024-03-23T06:43:39;9.30;64.40
6462;DHT22;3264;42.862;25.098;2024-03-23T06:46:11;9.60;64.00
6462;DHT22;3264;42.862;25.098;2024-03-23T06:48:39;9.90;62.40
6462;DHT22;3264;42.862;25.098;2024-03-23T06:51:07;10.10;58.50
6462;DHT22;3264;42.862;25.098;2024-03-23T06:53:35;10.40;59.40
6462;DHT22;3264;42.862;25.098;2024-03-23T06:56:03;10.70;58.50
6462;DHT22;3264;42.862;25.098;2024-03-23T06:58:31;10.90;58.20
6462;DHT22;3264;42.862;25.098;2024-03-23T07:00:59;11.20;57.50
6462;DHT22;3264;42.862;25.098;2024-03-23T07:03:26;11.50;56.50
6462;DHT22;3264;42.862;25.098;2024-03-23T07:05:58;11.70;54.60
6462;DHT22;3264;42.862;25.098;2024-03-23T07:08:24;11.70;54.00
6462;DHT22;3264;42.862;25.098;2024-03-23T07:10:53;12.00;54.50
6462;DHT22;3264;42.862;25.098;2024-03-23T07:13:20;12.20;53.70
6462;DHT22;3264;42.862;25.098;2024-03-23T07:15:53;12.50;53.70
6462;DHT22;3264;42.862;25.098;2024-03-23T07:18:21;12.90;53.80
6462;DHT22;3264;42.862;25.098;2024-03-23T07:20:55;13.10;51.50
6462;DHT22;3264;42.862;25.098;2024-03-23T07:23:23;13.20;50.60
6462;DHT22;3264;42.862;25.098;2024-03-23T07:25:57;13.40;50.30
6462;DHT22;3264;42.862;25.098;2024-03-23T07:28:24;13.70;51.00
6462;DHT22;3264;42.862;25.098;2024-03-23T07:31:06;14.20;51.30
6462;DHT22;3264;42.862;25.098;2024-03-23T07:33:36;14.60;48.80
6462;DHT22;3264;42.862;25.098;2024-03-23T07:36:04;14.80;49.20
6462;DHT22;3264;42.862;25.098;2024-03-23T07:38:32;15.10;47.70
6462;DHT22;3264;42.862;25.098;2024-03-23T07:41:04;15.50;47.30
6462;DHT22;3264;42.862;25.098;2024-03-23T07:43:31;15.80;49.70
6462;DHT22;3264;42.862;25.098;2024-03-23T07:46:00;16.20;49.30
6462;DHT22;3264;42.862;25.098;2024-03-23T07:48:29;16.50;47.10
6462;DHT22;3264;42.862;25.098;2024-03-23T07:51:01;16.80;46.20
6462;DHT22;3264;42.862;25.098;2024-03-23T07:53:28;17.30;43.20
6462;DHT22;3264;42.862;25.098;2024-03-23T07:55:57;17.50;39.30
6462;DHT22;3264;42.862;25.098;2024-03-23T07:58:24;17.60;36.60
6462;DHT22;3264;42.862;25.098;2024-03-23T08:00:53;17.60;35.60
6462;DHT22;3264;42.862;25.098;2024-03-23T08:03:19;17.90;34.30
6462;DHT22;3264;42.862;25.098;2024-03-23T08:05:49;18.20;33.90
6462;DHT22;3264;42.862;25.098;2024-03-23T08:08:16;18.40;29.90
6462;DHT22;3264;42.862;25.098;2024-03-23T08:10:51;18.40;31.20
6462;DHT22;3264;42.862;25.098;2024-03-23T08:13:19;18.40;27.50
6462;DHT22;3264;42.862;25.098;2024-03-23T08:15:47;18.40;29.70
6462;DHT22;3264;42.862;25.098;2024-03-23T08:18:14;18.50;28.40
6462;DHT22;3264;42.862;25.098;2024-03-23T08:20:43;18.80;29.00
6462;DHT22;3264;42.862;25.098;2024-03-23T08:23:12;19.10;29.10
6462;DHT22;3264;42.862;25.098;2024-03-23T08:25:40;19.40;29.60
6462;DHT22;3264;42.862;25.098;2024-03-23T08:28:08;19.80;29.20
6462;DHT22;3264;42.862;25.098;2024-03-23T08:30:35;20.00;29.20
6462;DHT22;3264;42.862;25.098;2024-03-23T08:33:03;20.00;27.80
6462;DHT22;3264;42.862;25.098;2024-03-23T08:35:30;20.30;27.80
6462;DHT22;3264;42.862;25.098;2024-03-23T08:37:57;20.50;28.40
6462;DHT22;3264;42.862;25.098;2024-03-23T08:40:25;20.90;29.00
6462;DHT22;3264;42.862;25.098;2024-03-23T08:42:53;21.30;28.80
6462;DHT22;3264;42.862;25.098;2024-03-23T08:45:21;21.60;28.50
6462;DHT22;3264;42.862;25.098;2024-03-23T08:47:49;21.80;27.50
6462;DHT22;3264;42.862;25.098;2024-03-23T08:50:16;22.10;28.00
6462;DHT22;3264;42.862;25.098;2024-03-23T08:52:44;22.30;28.00
6462;DHT22;3264;42.862;25.098;2024-03-23T08:55:11;22.40;25.60
6462;DHT22;3264;42.862;25.098;2024-03-23T08:57:42;22.20;25.90
6462;DHT22;3264;42.862;25.098;2024-03-23T09:00:10;22.20;26.40
6462;DHT22;3264;42.862;25.098;2024-03-23T09:02:39;22.60;28.00
6462;DHT22;3264;42.862;25.098;2024-03-23T09:05:06;22.60;26.30
6462;DHT22;3264;42.862;25.098;2024-03-23T09:07:35;22.40;27.00
6462;DHT22;3264;42.862;25.098;2024-03-23T09:10:02;22.10;25.60
6462;DHT22;3264;42.862;25.098;2024-03-23T09:12:31;22.10;27.40
6462;DHT22;3264;42.862;25.098;2024-03-23T09:14:59;22.20;26.00
6462;DHT22;3264;42.862;25.098;2024-03-23T09:17:28;22.20;27.30
6462;DHT22;3264;42.862;25.098;2024-03-23T09:19:54;22.50;26.60
6462;DHT22;3264;42.862;25.098;2024-03-23T09:22:24;22.60;27.10
6462;DHT22;3264;42.862;25.098;2024-03-23T09:24:51;22.90;28.90
6462;DHT22;3264;42.862;25.098;2024-03-23T09:27:20;23.10;29.10
6462;DHT22;3264;42.862;25.098;2024-03-23T09:29:46;23.30;29.00
6462;DHT22;3264;42.862;25.098;2024-03-23T09:32:16;23.20;28.50
6462;DHT22;3264;42.862;25.098;2024-03-23T09:34:43;23.30;28.90
6462;DHT22;3264;42.862;25.098;2024-03-23T09:37:11;23.30;28.70
6462;DHT22;3264;42.862;25.098;2024-03-23T09:39:38;23.10;26.90
6462;DHT22;3264;42.862;25.098;2024-03-23T09:42:08;22.80;29.40
6462;DHT22;3264;42.862;25.098;2024-03-23T09:44:36;22.80;30.00
6462;DHT22;3264;42.862;25.098;2024-03-23T09:47:05;23.00;29.40
6462;DHT22;3264;42.862;25.098;2024-03-23T09:49:34;23.10;28.80
6462;DHT22;3264;42.862;25.098;2024-03-23T09:52:04;23.20;29.70
6462;DHT22;3264;42.862;25.098;2024-03-23T09:54:31;23.40;29.60
6462;DHT22;3264;42.862;25.098;2024-03-23T09:56:59;23.50;29.40
6462;DHT22;3264;42.862;25.098;2024-03-23T09:59:27;23.60;30.30
6462;DHT22;3264;42.862;25.098;2024-03-23T10:01:55;23.60;29.80
6462;DHT22;3264;42.862;25.098;2024-03-23T10:04:41;23.40;29.60
6462;DHT22;3264;42.862;25.098;2024-03-23T10:07:12;23.30;30.40
6462;DHT22;3264;42.862;25.098;2024-03-23T10:09:40;23.30;30.30
6462;DHT22;3264;42.862;25.098;2024-03-23T10:12:09;23.50;30.40
6462;DHT22;3264;42.862;25.098;2024-03-23T10:14:36;23.50;30.20
6462;DHT22;3264;42.862;25.098;2024-03-23T10:17:14;23.30;29.50
6462;DHT22;3264;42.862;25.098;2024-03-23T10:19:46;23.30;30.50
6462;DHT22;3264;42.862;25.098;2024-03-23T10:22:18;23.30;31.20
6462;DHT22;3264;42.862;25.098;2024-03-23T10:24:46;23.20;29.40
6462;DHT22;3264;42.862;25.098;2024-03-23T10:27:16;23.00;28.00
6462;DHT22;3264;42.862;25.098;2024-03-23T10:29:43;22.80;30.20
6462;DHT22;3264;42.862;25.098;2024-03-23T10:32:12;23.00;30.40
6462;DHT22;3264;42.862;25.098;2024-03-23T10:34:40;23.10;30.60
6462;DHT22;3264;42.862;25.098;2024-03-23T10:37:10;23.30;29.90
6462;DHT22;3264;42.862;25.098;2024-03-23T10:39:37;23.50;30.50
6462;DHT22;3264;42.862;25.098;2024-03-23T10:42:07;23.60;29.40
6462;DHT22;3264;42.862;25.098;2024-03-23T10:44:34;23.60;30.20
6462;DHT22;3264;42.862;25.098;2024-03-23T10:47:03;23.70;30.10
6462;DHT22;3264;42.862;25.098;2024-03-23T10:49:32;23.70;28.90
6462;DHT22;3264;42.862;25.098;2024-03-23T10:52:01;23.70;30.00
6462;DHT22;3264;42.862;25.098;2024-03-23T10:54:31;23.80;30.00
6462;DHT22;3264;42.862;25.098;2024-03-23T10:57:05;24.00;30.10
6462;DHT22;3264;42.862;25.098;2024-03-23T10:59:36;24.30;30.00
6462;DHT22;3264;42.862;25.098;2024-03-23T11:02:05;24.10;28.70
6462;DHT22;3264;42.862;25.098;2024-03-23T11:04:36;23.90;29.60
6462;DHT22;3264;42.862;25.098;2024-03-23T11:07:29;24.10;29.50
6462;DHT22;3264;42.862;25.098;2024-03-23T11:09:58;24.30;29.00
6462;DHT22;3264;42.862;25.098;2024-03-23T11:12:27;23.50;27.70
6462;DHT22;3264;42.862;25.098;2024-03-23T11:14:56;23.40;29.70
6462;DHT22;3264;42.862;25.098;2024-03-23T11:17:26;23.30;29.40
6462;DHT22;3264;42.862;25.098;2024-03-23T11:19:56;23.10;28.90
6462;DHT22;3264;42.862;25.098;2024-03-23T11:22:43;23.20;30.40
6462;DHT22;3264;42.862;25.098;2024-03-23T11:25:16;23.40;30.00
6462;DHT22;3264;42.862;25.098;2024-03-23T11:27:44;23.60;30.00
6462;DHT22;3264;42.862;25.098;2024-03-23T11:30:13;23.80;29.80
6462;DHT22;3264;42.862;25.098;2024-03-23T11:32:43;23.90;29.30
6462;DHT22;3264;42.862;25.098;2024-03-23T11:35:10;23.90;28.30
6462;DHT22;3264;42.862;25.098;2024-03-23T11:37:38;23.80;29.00
6462;DHT22;3264;42.862;25.098;2024-03-23T11:40:20;23.50;28.10
6462;DHT22;3264;42.862;25.098;2024-03-23T11:42:55;23.20;29.30
6462;DHT22;3264;42.862;25.098;2024-03-23T11:45:22;23.10;29.00
6462;DHT22;3264;42.862;25.098;2024-03-23T11:48:04;23.30;29.70
6462;DHT22;3264;42.862;25.098;2024-03-23T11:50:31;23.30;28.80
6462;DHT22;3264;42.862;25.098;2024-03-23T11:53:14;23.30;29.10
6462;DHT22;3264;42.862;25.098;2024-03-23T11:55:50;23.30;29.70
6462;DHT22;3264;42.862;25.098;2024-03-23T11:58:20;23.40;29.50
6462;DHT22;3264;42.862;25.098;2024-03-23T12:00:52;23.50;29.40
6462;DHT22;3264;42.862;25.098;2024-03-23T12:03:20;23.50;29.90
6462;DHT22;3264;42.862;25.098;2024-03-23T12:05:49;23.60;28.60
6462;DHT22;3264;42.862;25.098;2024-03-23T12:08:21;23.80;29.30
6462;DHT22;3264;42.862;25.098;2024-03-23T12:10:51;23.70;28.30
6462;DHT22;3264;42.862;25.098;2024-03-23T12:13:20;23.80;29.80
6462;DHT22;3264;42.862;25.098;2024-03-23T12:15:49;23.90;28.90
6462;DHT22;3264;42.862;25.098;2024-03-23T12:18:17;23.90;28.60
6462;DHT22;3264;42.862;25.098;2024-03-23T12:20:50;23.80;28.40
6462;DHT22;3264;42.862;25.098;2024-03-23T12:23:18;23.60;28.00
6462;DHT22;3264;42.862;25.098;2024-03-23T12:25:50;23.80;30.00
6462;DHT22;3264;42.862;25.098;2024-03-23T12:28:19;23.90;29.90
6462;DHT22;3264;42.862;25.098;2024-03-23T12:30:46;24.10;29.60
6462;DHT22;3264;42.862;25.098;2024-03-23T12:33:13;24.10;28.80
6462;DHT22;3264;42.862;25.098;2024-03-23T12:35:41;24.00;28.40
6462;DHT22;3264;42.862;25.098;2024-03-23T12:38:10;23.80;28.20
6462;DHT22;3264;42.862;25.098;2024-03-23T12:40:37;23.40;27.90
6462;DHT22;3264;42.862;25.098;2024-03-23T12:43:07;23.30;29.40
6462;DHT22;3264;42.862;25.098;2024-03-23T12:45:34;23.30;29.30
6462;DHT22;3264;42.862;25.098;2024-03-23T12:48:02;23.30;30.30
6462;DHT22;3264;42.862;25.098;2024-03-23T12:50:29;23.50;30.30
6462;DHT22;3264;42.862;25.098;2024-03-23T12:52:58;23.60;29.10
6462;DHT22;3264;42.862;25.098;2024-03-23T12:55:25;23.40;28.40
6462;DHT22;3264;42.862;25.098;2024-03-23T12:57:52;23.20;29.10
6462;DHT22;3264;42.862;25.098;2024-03-23T13:00:21;23.10;29.20
6462;DHT22;3264;42.862;25.098;2024-03-23T13:02:51;23.20;30.50
6462;DHT22;3264;42.862;25.098;2024-03-23T13:05:18;23.40;29.20
6462;DHT22;3264;42.862;25.098;2024-03-23T13:07:45;23.60;30.00
6462;DHT22;3264;42.862;25.098;2024-03-23T13:10:12;23.70;29.60
6462;DHT22;3264;42.862;25.098;2024-03-23T13:12:41;23.70;28.50
6462;DHT22;3264;42.862;25.098;2024-03-23T13:15:09;23.70;29.40
6462;DHT22;3264;42.862;25.098;2024-03-23T13:17:39;23.80;29.00
6462;DHT22;3264;42.862;25.098;2024-03-23T13:20:07;23.90;29.40
6462;DHT22;3264;42.862;25.098;2024-03-23T13:22:40;24.10;30.50
6462;DHT22;3264;42.862;25.098;2024-03-23T13:25:07;24.10;28.20
6462;DHT22;3264;42.862;25.098;2024-03-23T13:27:35;24.10;29.20
6462;DHT22;3264;42.862;25.098;2024-03-23T13:30:02;24.00;29.10
6462;DHT22;3264;42.862;25.098;2024-03-23T13:32:30;24.00;29.00
6462;DHT22;3264;42.862;25.098;2024-03-23T13:34:59;23.90;29.00
6462;DHT22;3264;42.862;25.098;2024-03-23T13:37:27;23.70;28.00
6462;DHT22;3264;42.862;25.098;2024-03-23T13:39:55;23.60;28.90
6462;DHT22;3264;42.862;25.098;2024-03-23T13:42:22;23.70;29.80
6462;DHT22;3264;42.862;25.098;2024-03-23T13:44:52;23.90;29.60
6462;DHT22;3264;42.862;25.098;2024-03-23T13:47:20;23.90;29.10
6462;DHT22;3264;42.862;25.098;2024-03-23T13:49:47;23.90;29.90
6462;DHT22;3264;42.862;25.098;2024-03-23T13:52:18;23.90;29.90
6462;DHT22;3264;42.862;25.098;2024-03-23T13:54:49;24.00;29.90
6462;DHT22;3264;42.862;25.098;2024-03-23T13:57:17;24.00;29.60
6462;DHT22;3264;42.862;25.098;2024-03-23T13:59:48;24.10;30.00
6462;DHT22;3264;42.862;25.098;2024-03-23T14:02:17;23.90;27.90
6462;DHT22;3264;42.862;25.098;2024-03-23T14:04:43;23.70;28.00
6462;DHT22;3264;42.862;25.098;2024-03-23T14:07:13;23.60;29.30
6462;DHT22;3264;42.862;25.098;2024-03-23T14:09:45;23.60;29.60
6462;DHT22;3264;42.862;25.098;2024-03-23T14:12:14;23.80;29.70
6462;DHT22;3264;42.862;25.098;2024-03-23T14:14:40;23.80;29.30
6462;DHT22;3264;42.862;25.098;2024-03-23T14:17:08;23.70;29.00
6462;DHT22;3264;42.862;25.098;2024-03-23T14:19:35;23.60;29.40
6462;DHT22;3264;42.862;25.098;2024-03-23T14:22:03;23.40;28.80
6462;DHT22;3264;42.862;25.098;2024-03-23T14:24:33;23.40;28.40
6462;DHT22;3264;42.862;25.098;2024-03-23T14:27:02;23.30;29.10
6462;DHT22;3264;42.862;25.098;2024-03-23T14:29:31;23.20;28.00
6462;DHT22;3264;42.862;25.098;2024-03-23T14:32:01;23.20;28.90
6462;DHT22;3264;42.862;25.098;2024-03-23T14:34:27;23.30;29.90
6462;DHT22;3264;42.862;25.098;2024-03-23T14:36:56;23.30;29.10
6462;DHT22;3264;42.862;25.098;2024-03-23T14:39:24;23.40;29.30
6462;DHT22;3264;42.862;25.098;2024-03-23T14:41:53;23.30;29.30
6462;DHT22;3264;42.862;25.098;2024-03-23T14:44:21;23.20;28.80
6462;DHT22;3264;42.862;25.098;2024-03-23T14:46:49;22.90;28.50
6462;DHT22;3264;42.862;25.098;2024-03-23T14:49:17;22.60;28.30
6462;DHT22;3264;42.862;25.098;2024-03-23T14:51:45;22.50;28.80
6462;DHT22;3264;42.862;25.098;2024-03-23T14:54:13;22.50;29.10
6462;DHT22;3264;42.862;25.098;2024-03-23T14:56:42;22.60;29.50
6462;DHT22;3264;42.862;25.098;2024-03-23T14:59:08;22.50;28.00
6462;DHT22;3264;42.862;25.098;2024-03-23T15:01:38;22.30;28.40
6462;DHT22;3264;42.862;25.098;2024-03-23T15:04:06;22.20;28.80
6462;DHT22;3264;42.862;25.098;2024-03-23T15:06:34;22.20;29.10
6462;DHT22;3264;42.862;25.098;2024-03-23T15:09:01;22.10;28.20
6462;DHT22;3264;42.862;25.098;2024-03-23T15:11:33;21.90;28.40
6462;DHT22;3264;42.862;25.098;2024-03-23T15:14:02;21.70;28.90
6462;DHT22;3264;42.862;25.098;2024-03-23T15:16:29;21.60;29.80
6462;DHT22;3264;42.862;25.098;2024-03-23T15:18:58;21.60;30.60
6462;DHT22;3264;42.862;25.098;2024-03-23T15:21:26;21.50;29.70
6462;DHT22;3264;42.862;25.098;2024-03-23T15:23:53;21.40;30.50
6462;DHT22;3264;42.862;25.098;2024-03-23T15:26:20;21.40;30.70
6462;DHT22;3264;42.862;25.098;2024-03-23T15:28:49;21.30;31.20
6462;DHT22;3264;42.862;25.098;2024-03-23T15:31:36;21.30;30.10
6462;DHT22;3264;42.862;25.098;2024-03-23T15:34:16;21.20;29.00
6462;DHT22;3264;42.862;25.098;2024-03-23T15:36:43;21.20;29.70
6462;DHT22;3264;42.862;25.098;2024-03-23T15:39:11;21.10;29.40
6462;DHT22;3264;42.862;25.098;2024-03-23T15:41:39;21.00;29.50
6462;DHT22;3264;42.862;25.098;2024-03-23T15:44:07;20.90;30.50
6462;DHT22;3264;42.862;25.098;2024-03-23T15:46:34;20.70;30.00
6462;DHT22;3264;42.862;25.098;2024-03-23T15:49:03;20.60;31.30
6462;DHT22;3264;42.862;25.098;2024-03-23T15:51:32;20.40;31.00
6462;DHT22;3264;42.862;25.098;2024-03-23T15:54:03;20.10;30.00
6462;DHT22;3264;42.862;25.098;2024-03-23T15:56:30;19.80;31.10
6462;DHT22;3264;42.862;25.098;2024-03-23T15:58:59;19.50;31.50
6462;DHT22;3264;42.862;25.098;2024-03-23T16:01:31;19.20;32.40
6462;DHT22;3264;42.862;25.098;2024-03-23T16:04:01;19.00;34.10
6462;DHT22;3264;42.862;25.098;2024-03-23T16:06:28;18.60;33.20
6462;DHT22;3264;42.862;25.098;2024-03-23T16:08:58;18.30;33.20
6462;DHT22;3264;42.862;25.098;2024-03-23T16:11:27;18.00;33.50
6462;DHT22;3264;42.862;25.098;2024-03-23T16:13:56;17.90;34.20
6462;DHT22;3264;42.862;25.098;2024-03-23T16:16:23;17.70;34.70
6462;DHT22;3264;42.862;25.098;2024-03-23T16:18:51;17.50;34.30
6462;DHT22;3264;42.862;25.098;2024-03-23T16:21:19;17.40;34.60
6462;DHT22;3264;42.862;25.098;2024-03-23T16:23:47;17.30;35.00
6462;DHT22;3264;42.862;25.098;2024-03-23T16:26:15;17.20;35.20
6462;DHT22;3264;42.862;25.098;2024-03-23T16:28:44;17.00;35.70
6462;DHT22;3264;42.862;25.098;2024-03-23T16:31:11;16.90;35.90
6462;DHT22;3264;42.862;25.098;2024-03-23T16:33:40;16.90;36.70
6462;DHT22;3264;42.862;25.098;2024-03-23T16:36:08;16.80;36.60
6462;DHT22;3264;42.862;25.098;2024-03-23T16:38:39;16.60;36.90
6462;DHT22;3264;42.862;25.098;2024-03-23T16:41:08;16.50;38.50
6462;DHT22;3264;42.862;25.098;2024-03-23T16:43:37;16.40;39.10
6462;DHT22;3264;42.862;25.098;2024-03-23T16:46:12;16.20;38.80
6462;DHT22;3264;42.862;25.098;2024-03-23T16:48:41;16.30;38.90
6462;DHT22;3264;42.862;25.098;2024-03-23T16:51:12;16.30;38.50
6462;DHT22;3264;42.862;25.098;2024-03-23T16:53:41;16.30;38.20